createdAt,value
2018-03-04T00:00:54.728Z,12.90
2018-03-04T00:03:23.699Z,11.87
2018-03-04T00:05:52.681Z,13.90
2018-03-04T00:08:21.722Z,12.33
2018-03-04T00:10:50.739Z,12.27
2018-03-04T00:13:19.721Z,11.93
2018-03-04T00:15:48.819Z,11.77
2018-03-04T00:18:18.550Z,12.00
2018-03-04T00:20:47.533Z,13.57
2018-03-04T00:23:16.548Z,13.03
2018-03-04T00:25:45.588Z,15.27
2018-03-04T00:28:15.342Z,12.97
2018-03-04T00:30:44.339Z,11.93
2018-03-04T00:33:14.158Z,13.30
2018-03-04T00:35:43.287Z,12.63
2018-03-04T00:38:13.017Z,11.40
2018-03-04T00:40:42.010Z,12.87
2018-03-04T00:43:10.974Z,13.20
2018-03-04T00:45:40.525Z,14.37
2018-03-04T00:48:09.492Z,13.53
2018-03-04T00:50:38.456Z,11.53
2018-03-04T00:53:07.442Z,12.83
2018-03-04T00:55:36.400Z,10.90
2018-03-04T00:58:05.792Z,13.20
2018-03-04T01:00:35.153Z,12.33
2018-03-04T01:03:04.111Z,12.60
2018-03-04T01:05:34.252Z,13.60
2018-03-04T01:08:03.300Z,12.90
2018-03-04T01:10:33.246Z,12.67
2018-03-04T01:13:02.957Z,11.53
2018-03-04T01:15:32.321Z,13.60
2018-03-04T01:18:01.316Z,13.40
2018-03-04T01:20:31.158Z,13.17
2018-03-04T01:23:00.913Z,12.87
2018-03-04T01:25:30.997Z,13.20
2018-03-04T01:28:00.009Z,13.07
2018-03-04T01:30:29.760Z,12.27
2018-03-04T01:32:59.102Z,11.90
2018-03-04T01:35:28.541Z,13.33
2018-03-04T01:37:57.584Z,13.17
2018-03-04T01:40:27.350Z,14.40
2018-03-04T01:42:56.343Z,14.10
2018-03-04T01:45:25.385Z,12.77
2018-03-04T01:47:54.772Z,12.83
2018-03-04T01:50:23.740Z,11.90
2018-03-04T01:52:52.765Z,12.90
2018-03-04T01:55:22.172Z,12.33
2018-03-04T01:57:51.503Z,12.70
2018-03-04T02:00:21.196Z,12.80
2018-03-04T02:02:50.277Z,12.77
2018-03-04T02:05:19.985Z,13.17
2018-03-04T02:07:49.735Z,13.40
2018-03-04T02:10:19.016Z,12.43
2018-03-04T02:12:47.981Z,12.30
2018-03-04T02:15:17.035Z,14.00
2018-03-04T02:17:46.790Z,12.60
2018-03-04T02:20:16.562Z,12.20
2018-03-04T02:22:45.597Z,11.90
2018-03-04T02:25:15.327Z,12.80
2018-03-04T02:27:44.345Z,15.60
2018-03-04T02:30:13.363Z,13.17
2018-03-04T02:32:42.325Z,15.07
2018-03-04T02:35:11.272Z,13.33
2018-03-04T02:37:41.059Z,14.07
2018-03-04T02:40:10.819Z,12.17
2018-03-04T02:42:39.783Z,13.90
2018-03-04T02:45:09.619Z,14.33
2018-03-04T02:47:38.569Z,14.97
2018-03-04T02:50:07.554Z,13.17
2018-03-04T02:52:37.316Z,12.87
2018-03-04T02:55:06.287Z,11.77
2018-03-04T02:57:35.790Z,14.20
2018-03-04T03:00:05.329Z,12.30
2018-03-04T03:02:34.316Z,14.07
2018-03-04T03:05:04.065Z,13.20
2018-03-04T03:07:33.021Z,14.67
2018-03-04T03:10:02.019Z,13.17
2018-03-04T03:12:33.484Z,13.60
2018-03-04T03:15:02.492Z,13.57
2018-03-04T03:17:31.483Z,12.20
2018-03-04T03:20:00.941Z,13.37
2018-03-04T03:22:29.946Z,13.77
2018-03-04T03:24:59.706Z,13.57
2018-03-04T03:27:28.833Z,13.97
2018-03-04T03:29:58.223Z,16.43
2018-03-04T03:32:27.198Z,13.57
2018-03-04T03:34:56.577Z,14.50
2018-03-04T03:37:25.533Z,13.40
2018-03-04T03:39:54.491Z,13.57
2018-03-04T03:42:24.250Z,14.00
2018-03-04T03:44:53.304Z,14.27
2018-03-04T03:47:22.241Z,14.87
2018-03-04T03:49:51.305Z,13.30
2018-03-04T03:52:20.301Z,16.00
2018-03-04T03:54:49.332Z,15.33
2018-03-04T03:57:19.046Z,15.10
2018-03-04T03:59:48.032Z,14.60
2018-03-04T04:02:17.028Z,14.70
2018-03-04T04:04:46.796Z,13.83
2018-03-04T04:07:15.772Z,13.13
2018-03-04T04:09:45.490Z,14.20
2018-03-04T04:12:15.297Z,13.80
2018-03-04T04:14:45.012Z,16.03
2018-03-04T04:17:14.403Z,15.17
2018-03-04T04:19:44.216Z,16.37
2018-03-04T04:22:13.185Z,14.77
2018-03-04T04:24:42.136Z,17.03
2018-03-04T04:27:11.125Z,14.87
2018-03-04T04:29:40.924Z,17.17
2018-03-04T04:32:09.919Z,15.57
2018-03-04T04:34:38.991Z,14.47
2018-03-04T04:37:08.439Z,13.67
2018-03-04T04:39:38.201Z,16.10
2018-03-04T04:42:07.601Z,14.97
2018-03-04T04:44:36.544Z,12.77
2018-03-04T04:47:05.516Z,14.53
2018-03-04T04:49:34.592Z,14.17
2018-03-04T04:52:04.660Z,14.47
2018-03-04T04:54:33.659Z,13.97
2018-03-04T04:57:08.414Z,14.40
2018-03-04T04:59:38.168Z,15.47
2018-03-04T05:02:09.537Z,17.23
2018-03-04T05:04:38.540Z,16.13
2018-03-04T05:07:07.500Z,16.33
2018-03-04T05:09:37.004Z,14.97
2018-03-04T05:12:06.768Z,15.23
2018-03-04T05:14:36.895Z,14.97
2018-03-04T05:17:08.609Z,16.10
2018-03-04T05:19:37.748Z,15.80
2018-03-04T05:22:06.696Z,17.27
2018-03-04T05:24:35.680Z,15.53
2018-03-04T05:27:04.665Z,16.90
2018-03-04T05:29:33.721Z,14.93
2018-03-04T05:32:03.432Z,15.53
2018-03-04T05:34:33.288Z,15.50
2018-03-04T05:37:02.252Z,14.83
2018-03-04T05:39:40.937Z,14.70
2018-03-04T05:42:13.714Z,15.27
2018-03-04T05:44:42.693Z,15.77
2018-03-04T05:47:19.414Z,15.43
2018-03-04T05:49:50.439Z,16.10
2018-03-04T05:52:22.294Z,15.47
2018-03-04T05:54:52.033Z,18.00
2018-03-04T05:57:21.792Z,17.33
2018-03-04T05:59:53.901Z,16.53
2018-03-04T06:02:23.038Z,19.90
2018-03-04T06:04:51.998Z,18.83
2018-03-04T06:07:20.985Z,16.07
2018-03-04T06:09:49.963Z,15.63
2018-03-04T06:12:20.223Z,16.00
2018-03-04T06:14:49.795Z,17.13
2018-03-04T06:20:08.634Z,16.37
2018-03-04T06:22:37.612Z,15.23
2018-03-04T06:25:07.767Z,17.73
2018-03-04T06:27:37.825Z,17.83
2018-03-04T06:30:08.018Z,15.30
2018-03-04T06:32:37.043Z,16.90
2018-03-04T06:35:06.095Z,17.50
2018-03-04T06:37:35.811Z,14.93
2018-03-04T06:40:05.562Z,16.50
2018-03-04T06:42:34.530Z,15.97
2018-03-04T06:45:03.488Z,17.07
2018-03-04T06:47:33.254Z,17.60
2018-03-04T06:50:02.698Z,17.00
2018-03-04T06:52:31.624Z,17.97
2018-03-04T06:55:00.578Z,16.97
2018-03-04T06:57:29.562Z,17.40
2018-03-04T06:59:58.546Z,17.70
2018-03-04T07:02:27.513Z,16.80
2018-03-04T07:04:56.813Z,16.77
2018-03-04T07:07:25.859Z,14.93
2018-03-04T07:09:55.547Z,17.87
2018-03-04T07:12:24.718Z,18.37
2018-03-04T07:14:53.779Z,16.33
2018-03-04T07:17:22.959Z,17.70
2018-03-04T07:19:51.961Z,17.53
2018-03-04T07:22:20.950Z,17.00
2018-03-04T07:24:51.200Z,17.50
2018-03-04T07:27:21.004Z,18.30
2018-03-04T07:29:50.792Z,18.50
2018-03-04T07:32:20.567Z,16.47
2018-03-04T07:34:51.128Z,18.70
2018-03-04T07:37:20.662Z,17.30
2018-03-04T07:39:49.853Z,17.63
2018-03-04T07:42:20.636Z,19.47
2018-03-04T07:44:51.958Z,19.90
2018-03-04T07:47:21.008Z,18.50
2018-03-04T07:49:50.102Z,19.77
2018-03-04T07:52:20.320Z,19.00
2018-03-04T07:54:50.164Z,18.53
2018-03-04T07:57:19.746Z,18.63
2018-03-04T07:59:49.056Z,17.90
2018-03-04T08:02:18.105Z,18.47
2018-03-04T08:04:47.136Z,20.73
2018-03-04T08:07:16.234Z,19.23
2018-03-04T08:09:45.987Z,19.40
2018-03-04T08:12:15.754Z,22.53
2018-03-04T08:14:44.753Z,26.07
2018-03-04T08:17:13.794Z,21.20
2018-03-04T08:19:42.788Z,20.20
2018-03-04T08:22:11.776Z,19.03
2018-03-04T08:24:42.285Z,20.63
2018-03-04T08:27:23.318Z,18.50
2018-03-04T08:29:53.195Z,18.70
2018-03-04T08:32:23.466Z,19.80
2018-03-04T08:34:52.494Z,20.87
2018-03-04T08:37:22.666Z,19.80
2018-03-04T08:39:51.662Z,20.07
2018-03-04T08:42:22.691Z,20.27
2018-03-04T08:44:51.714Z,20.43
2018-03-04T08:47:20.768Z,19.53
2018-03-04T08:49:50.222Z,20.93
2018-03-04T08:52:19.439Z,21.03
2018-03-04T08:54:50.735Z,21.20
2018-03-04T08:57:19.735Z,23.37
2018-03-04T08:59:49.990Z,22.67
2018-03-04T09:02:19.182Z,22.07
2018-03-04T09:04:48.973Z,21.13
2018-03-04T09:07:19.423Z,22.80
2018-03-04T09:09:48.376Z,21.27
2018-03-04T09:12:17.689Z,22.07
2018-03-04T09:14:47.103Z,22.90
2018-03-04T09:17:16.008Z,22.87
2018-03-04T09:19:45.072Z,22.67
2018-03-04T09:22:14.009Z,22.87
2018-03-04T09:24:43.485Z,23.00
2018-03-04T09:27:12.559Z,25.10
2018-03-04T09:29:41.907Z,22.27
2018-03-04T09:32:10.867Z,24.47
2018-03-04T09:34:39.854Z,24.13
2018-03-04T09:37:08.798Z,24.97
2018-03-04T09:39:37.780Z,24.80
2018-03-04T09:42:06.789Z,23.80
2018-03-04T09:44:35.801Z,24.10
2018-03-04T09:47:05.584Z,24.20
2018-03-04T09:49:34.554Z,25.90
2018-03-04T09:52:03.753Z,25.17
2018-03-04T09:54:32.712Z,23.20
2018-03-04T09:57:01.706Z,24.57
2018-03-04T09:59:30.669Z,27.10
2018-03-04T10:01:59.620Z,25.73
2018-03-04T10:04:28.625Z,25.97
2018-03-04T10:06:57.981Z,24.37
2018-03-04T10:09:28.046Z,23.73
2018-03-04T10:11:57.008Z,25.80
2018-03-04T10:14:25.960Z,25.00
2018-03-04T10:16:55.027Z,25.17
2018-03-04T10:19:24.751Z,27.90
2018-03-04T10:21:55.739Z,27.97
2018-03-04T10:24:24.800Z,27.00
2018-03-04T10:26:54.490Z,27.27
2018-03-04T10:29:23.458Z,27.50
2018-03-04T10:31:52.977Z,27.40
2018-03-04T10:34:21.924Z,28.20
2018-03-04T10:36:51.004Z,27.17
2018-03-04T10:39:20.718Z,27.87
2018-03-04T10:41:50.084Z,28.30
2018-03-04T10:44:19.592Z,27.20
2018-03-04T10:46:48.709Z,27.20
2018-03-04T10:49:17.686Z,28.17
2018-03-04T10:51:46.693Z,27.80
2018-03-04T10:54:16.453Z,28.40
2018-03-04T10:56:45.509Z,28.30
2018-03-04T10:59:14.915Z,28.00
2018-03-04T11:01:43.926Z,27.47
2018-03-04T11:04:13.330Z,29.50
2018-03-04T11:06:42.852Z,30.33
2018-03-04T11:09:12.516Z,30.10
2018-03-04T11:11:42.734Z,28.87
2018-03-04T11:14:12.125Z,27.73
2018-03-04T11:16:41.502Z,32.47
2018-03-04T11:19:10.860Z,28.20
2018-03-04T11:21:39.868Z,30.37
2018-03-04T11:24:08.835Z,31.73
2018-03-04T11:26:38.605Z,29.00
2018-03-04T11:29:08.674Z,29.60
2018-03-04T11:31:37.630Z,30.67
2018-03-04T11:34:06.925Z,30.10
2018-03-04T11:36:36.416Z,32.77
2018-03-04T11:39:06.476Z,29.57
2018-03-04T11:41:35.575Z,28.83
2018-03-04T11:44:05.841Z,30.37
2018-03-04T11:46:36.486Z,30.83
2018-03-04T11:49:05.522Z,29.70
2018-03-04T11:51:34.857Z,28.90
2018-03-04T11:54:03.821Z,29.37
2018-03-04T11:56:34.840Z,30.83
2018-03-04T11:59:05.124Z,31.40
2018-03-04T12:01:34.261Z,28.40
2018-03-04T12:04:03.988Z,29.13
2018-03-04T12:06:32.988Z,29.20
2018-03-04T12:09:02.706Z,31.10
2018-03-04T12:11:31.689Z,31.60
2018-03-04T12:14:01.563Z,30.93
2018-03-04T12:16:31.366Z,31.40
2018-03-04T12:19:01.185Z,33.33
2018-03-04T12:21:30.200Z,30.83
2018-03-04T12:24:00.123Z,32.27
2018-03-04T12:26:29.233Z,28.83
2018-03-04T12:28:58.249Z,31.93
2018-03-04T12:31:27.344Z,33.30
2018-03-04T12:33:56.354Z,33.40
2018-03-04T12:36:26.658Z,31.10
2018-03-04T12:38:56.203Z,31.90
2018-03-04T12:41:26.506Z,32.13
2018-03-04T12:43:56.182Z,31.53
2018-03-04T12:46:25.672Z,32.93
2018-03-04T12:48:55.721Z,30.83
2018-03-04T12:51:24.874Z,32.20
2018-03-04T12:53:54.330Z,32.40
2018-03-04T12:56:27.278Z,32.47
2018-03-04T12:58:57.130Z,32.27
2018-03-04T13:01:26.174Z,32.50
2018-03-04T13:03:55.161Z,32.47
2018-03-04T13:06:24.152Z,31.80
2018-03-04T13:08:54.263Z,31.73
2018-03-04T13:11:23.734Z,29.53
2018-03-04T13:13:52.781Z,31.60
2018-03-04T13:16:21.799Z,32.90
2018-03-04T13:19:16.610Z,30.77
2018-03-04T13:21:46.890Z,31.80
2018-03-04T13:24:16.667Z,30.83
2018-03-04T13:26:46.266Z,32.50
2018-03-04T13:29:15.319Z,32.23
2018-03-04T13:32:04.350Z,31.37
2018-03-04T13:34:33.743Z,30.60
2018-03-04T13:37:03.508Z,32.27
2018-03-04T13:39:33.238Z,32.50
2018-03-04T13:42:03.002Z,31.90
2018-03-04T13:44:32.875Z,32.70
2018-03-04T13:47:01.850Z,33.27
2018-03-04T13:49:30.856Z,33.33
2018-03-04T13:52:00.603Z,31.50
2018-03-04T13:54:29.626Z,32.90
2018-03-04T13:56:59.666Z,32.00
2018-03-04T13:59:28.749Z,32.20
2018-03-04T14:02:00.029Z,31.80
2018-03-04T14:04:29.774Z,33.03
2018-03-04T14:06:58.862Z,33.27
2018-03-04T14:09:27.930Z,36.10
2018-03-04T14:11:56.929Z,31.10
2018-03-04T14:14:26.675Z,34.10
2018-03-04T14:16:56.113Z,34.00
2018-03-04T14:19:25.174Z,33.67
2018-03-04T14:21:54.564Z,33.70
2018-03-04T14:24:23.591Z,31.17
2018-03-04T14:26:52.574Z,33.30
2018-03-04T14:29:21.663Z,34.73
2018-03-04T14:31:50.749Z,34.60
2018-03-04T14:34:20.930Z,34.83
2018-03-04T14:36:50.705Z,32.87
2018-03-04T14:39:19.756Z,34.40
2018-03-04T14:41:49.147Z,35.20
2018-03-04T14:44:18.171Z,35.60
2018-03-04T14:46:47.965Z,34.63
2018-03-04T14:49:17.051Z,35.37
2018-03-04T14:51:46.042Z,35.10
2018-03-04T14:54:15.588Z,33.20
2018-03-04T14:56:44.641Z,34.47
2018-03-04T14:59:14.415Z,36.33
2018-03-04T15:01:44.960Z,35.97
2018-03-04T15:04:14.781Z,37.97
2018-03-04T15:06:44.585Z,33.90
2018-03-04T15:09:13.593Z,36.53
2018-03-04T15:11:42.647Z,35.37
2018-03-04T15:14:13.197Z,36.10
2018-03-04T15:16:43.009Z,36.00
2018-03-04T15:19:12.822Z,35.10
2018-03-04T15:21:42.595Z,36.60
2018-03-04T15:24:12.385Z,36.27
2018-03-04T15:26:41.374Z,43.90
2018-03-04T15:29:10.476Z,35.50
2018-03-04T15:31:39.935Z,45.93
2018-03-04T15:34:10.097Z,35.97
2018-03-04T15:36:39.083Z,40.23
2018-03-04T15:39:10.394Z,35.90
2018-03-04T15:41:40.326Z,35.40
2018-03-04T15:44:10.628Z,45.40
2018-03-04T15:46:40.035Z,36.90
2018-03-04T15:49:09.420Z,34.83
2018-03-04T15:51:38.479Z,33.97
2018-03-04T15:54:08.253Z,32.37
2018-03-04T15:56:37.290Z,33.63
2018-03-04T15:59:06.344Z,33.30
2018-03-04T16:07:51.234Z,30.80
2018-03-04T16:10:20.990Z,33.10
2018-03-04T16:12:50.423Z,33.30
2018-03-04T16:19:05.767Z,35.73
2018-03-04T16:21:34.759Z,33.27
2018-03-04T16:24:03.834Z,32.23
2018-03-04T16:26:33.674Z,31.80
2018-03-04T16:29:02.695Z,32.40
2018-03-04T16:31:55.422Z,34.67
2018-03-04T16:34:26.993Z,33.67
2018-03-04T16:36:56.064Z,34.40
2018-03-04T16:39:25.072Z,32.13
2018-03-04T16:41:54.486Z,31.30
2018-03-04T16:44:23.504Z,31.97
2018-03-04T16:46:53.844Z,31.77
2018-03-04T16:49:22.965Z,32.27
2018-03-04T16:51:52.399Z,34.43
2018-03-04T16:54:22.765Z,33.07
2018-03-04T16:56:52.516Z,33.37
2018-03-04T16:59:22.307Z,32.40
2018-03-04T17:01:52.254Z,29.90
2018-03-04T17:04:21.284Z,33.13
2018-03-04T17:06:51.081Z,33.57
2018-03-04T17:09:20.870Z,30.90
2018-03-04T17:11:49.835Z,33.20
2018-03-04T17:14:18.870Z,33.33
2018-03-04T17:16:48.716Z,31.00
2018-03-04T17:19:18.721Z,34.30
2018-03-04T17:21:49.279Z,32.67
2018-03-04T17:24:18.326Z,36.87
2018-03-04T17:26:47.347Z,32.33
2018-03-04T17:29:16.448Z,33.87
2018-03-04T17:31:45.814Z,34.97
2018-03-04T17:34:15.588Z,33.50
2018-03-04T17:36:44.649Z,33.27
2018-03-04T17:39:14.428Z,34.73
2018-03-04T17:41:43.404Z,33.03
2018-03-04T17:44:12.733Z,31.20
2018-03-04T17:46:41.741Z,31.23
2018-03-04T17:49:10.734Z,34.07
2018-03-04T17:51:39.844Z,36.33
2018-03-04T17:54:09.977Z,33.70
2018-03-04T17:56:39.156Z,28.53
2018-03-04T17:59:09.751Z,31.60
2018-03-04T18:01:38.874Z,31.60
2018-03-04T18:04:07.920Z,33.37
2018-03-04T18:06:36.964Z,30.83
2018-03-04T18:09:06.536Z,34.20
2018-03-04T18:11:36.045Z,30.97
2018-03-04T18:14:05.852Z,29.63
2018-03-04T18:16:34.875Z,33.47
2018-03-04T18:19:04.670Z,31.83
2018-03-04T18:21:34.035Z,32.47
2018-03-04T18:24:03.460Z,33.50
2018-03-04T18:26:33.338Z,31.53
2018-03-04T18:29:02.377Z,32.20
2018-03-04T18:31:32.167Z,32.77
2018-03-04T18:34:01.195Z,30.03
2018-03-04T18:36:31.220Z,30.97
2018-03-04T18:39:00.749Z,31.20
2018-03-04T18:41:30.232Z,32.30
2018-03-04T18:43:59.680Z,31.97
2018-03-04T18:46:29.449Z,30.07
2018-03-04T18:48:59.224Z,32.27
2018-03-04T18:51:40.282Z,30.63
2018-03-04T18:54:09.703Z,32.10
2018-03-04T18:56:39.485Z,30.67
2018-03-04T18:59:08.506Z,32.47
2018-03-04T19:01:38.314Z,30.53
2018-03-04T19:04:08.134Z,32.60
2018-03-04T19:06:37.950Z,30.50
2018-03-04T19:09:06.974Z,32.90
2018-03-04T19:11:37.476Z,30.90
2018-03-04T19:14:06.468Z,31.00
2018-03-04T19:16:35.463Z,31.70
2018-03-04T19:19:04.687Z,30.30
2018-03-04T19:21:34.473Z,31.83
2018-03-04T19:24:03.561Z,31.40
2018-03-04T19:26:33.596Z,29.60
2018-03-04T19:29:02.594Z,32.67
2018-03-04T19:31:32.336Z,33.53
2018-03-04T19:34:01.518Z,42.28
2018-03-04T19:36:30.650Z,39.47
2018-03-04T19:41:44.041Z,31.43
2018-03-04T19:44:13.837Z,30.13
2018-03-04T19:46:43.679Z,30.10
2018-03-04T19:49:13.215Z,33.37
2018-03-04T19:51:43.068Z,32.90
2018-03-04T19:54:14.062Z,33.70
2018-03-04T19:56:43.216Z,33.47
2018-03-04T19:59:13.013Z,33.30
2018-03-04T20:01:42.452Z,31.67
2018-03-04T20:04:11.930Z,31.20
2018-03-04T20:06:42.210Z,32.20
2018-03-04T20:09:12.037Z,33.10
2018-03-04T20:11:41.901Z,33.37
2018-03-04T20:14:11.789Z,32.33
2018-03-04T20:16:51.101Z,30.83
2018-03-04T20:19:23.031Z,33.37
2018-03-04T20:22:04.011Z,31.03
2018-03-04T20:24:33.059Z,33.73
2018-03-04T20:27:02.782Z,32.90
2018-03-04T20:29:32.595Z,33.30
2018-03-04T20:32:02.938Z,31.23
2018-03-04T20:34:32.733Z,33.13
2018-03-04T20:37:01.829Z,33.40
2018-03-04T20:39:31.635Z,34.83
2018-03-04T20:42:01.441Z,32.40
2018-03-04T20:44:32.178Z,31.83
2018-03-04T20:47:01.364Z,33.17
2018-03-04T20:49:31.366Z,34.07
2018-03-04T20:52:01.156Z,32.70
2018-03-04T20:54:30.587Z,32.47
2018-03-04T20:56:59.628Z,36.50
2018-03-04T20:59:28.770Z,34.03
2018-03-04T21:01:57.919Z,35.20
2018-03-04T21:04:35.273Z,35.23
2018-03-04T21:07:05.195Z,33.43
2018-03-04T21:09:34.981Z,32.20
2018-03-04T21:12:05.511Z,32.33
2018-03-04T21:14:34.552Z,32.47
2018-03-04T21:17:03.541Z,31.73
2018-03-04T21:22:35.511Z,32.00
2018-03-04T21:25:05.275Z,33.03
2018-03-04T21:27:35.050Z,32.53
2018-03-04T21:30:04.351Z,34.57
2018-03-04T21:32:33.835Z,32.27
2018-03-04T21:35:04.384Z,33.87
2018-03-04T21:37:33.773Z,32.37
2018-03-04T21:40:02.792Z,34.20
2018-03-04T21:42:32.195Z,34.37
2018-03-04T21:45:01.461Z,33.40
2018-03-04T21:47:38.931Z,34.10
2018-03-04T21:52:59.442Z,32.00
2018-03-04T21:55:28.437Z,31.80
2018-03-04T21:57:57.635Z,32.00
2018-03-04T22:00:27.429Z,35.07
2018-03-04T22:02:56.430Z,33.90
2018-03-04T22:05:26.203Z,32.60
2018-03-04T22:08:07.583Z,36.90
2018-03-04T22:10:37.458Z,35.90
2018-03-04T22:13:06.848Z,36.80
2018-03-04T22:15:36.618Z,37.60
2018-03-04T22:18:05.597Z,33.73
2018-03-04T22:20:35.331Z,32.43
2018-03-04T22:23:04.388Z,34.70
2018-03-04T22:25:34.157Z,35.00
2018-03-04T22:28:03.978Z,34.03
2018-03-04T22:30:33.718Z,32.73
2018-03-04T22:33:03.446Z,33.33
2018-03-04T22:35:32.457Z,31.80
2018-03-04T22:38:01.484Z,32.50
2018-03-04T22:40:31.189Z,31.40
2018-03-04T22:43:01.055Z,33.10
2018-03-04T22:45:43.987Z,32.53
2018-03-04T22:48:12.936Z,34.07
2018-03-04T22:50:42.700Z,32.43
2018-03-04T22:53:11.672Z,32.90
2018-03-04T22:55:42.037Z,31.60
2018-03-04T22:58:11.773Z,30.37
2018-03-04T23:00:40.763Z,29.97
2018-03-04T23:03:09.714Z,31.37
2018-03-04T23:05:39.101Z,33.10
2018-03-04T23:08:08.086Z,31.70
2018-03-04T23:10:38.889Z,32.93
2018-03-04T23:13:07.867Z,32.60
2018-03-04T23:15:37.349Z,31.80
2018-03-04T23:18:06.288Z,30.30
2018-03-04T23:20:35.672Z,30.33
2018-03-04T23:23:04.714Z,31.70
2018-03-04T23:25:33.673Z,30.90
2018-03-04T23:28:03.036Z,32.53
2018-03-04T23:33:12.427Z,30.10
2018-03-04T23:35:42.628Z,32.80
2018-03-04T23:38:11.667Z,32.43
2018-03-04T23:40:40.693Z,32.20
2018-03-04T23:43:09.690Z,32.83
2018-03-04T23:45:39.429Z,32.07
2018-03-04T23:48:09.213Z,34.60
2018-03-04T23:50:38.924Z,32.80
2018-03-04T23:53:08.681Z,33.67
2018-03-04T23:55:37.673Z,32.20
2018-03-04T23:58:06.660Z,35.33
